This is the latest recevied weather packets stored in our database for station/object AG1T-20. If no packets are shown the sender has not sent any weather packets the latest 10 day(s).
| Time | Temp. | Humidity | Pressure | Rain* | Wind** | Luminosity | Snow |
|---|---|---|---|---|---|---|---|
| 1787947805 | 30° C | 31% | 1020.1 hPa | 0 mm | - | 816 W/m² | - |
| 1787947213 | 29.44° C | 32% | 1020.1 hPa | 0 mm | - | 330 W/m² | - |
| 1787946605 | 30.56° C | 32% | 1020.5 hPa | 0 mm | - | 793 W/m² | - |
| 1787946006 | 29.44° C | 32% | 1020.5 hPa | 0 mm | - | 827 W/m² | - |
| 1787945405 | 28.33° C | - | - | 0 mm | - | 103 W/m² | - |
| 1787944805 | 27.22° C | 40% | 1020.5 hPa | 0 mm | - | 893 W/m² | - |
| 1787944205 | 27.22° C | 39% | 1020.5 hPa | 0 mm | - | 386 W/m² | - |
| 1787943605 | 27.78° C | 37% | 1020.5 hPa | 0 mm | - | 424 W/m² | - |
| 1787943005 | 28.33° C | 38% | 1021.1 hPa | 0 mm | - | 863 W/m² | - |
| 1787942405 | 27.22° C | - | - | 0 mm | - | 104 W/m² | - |
| 1787941805 | 27.78° C | 43% | 1021.1 hPa | 0 mm | - | 452 W/m² | - |
| 1787941205 | 26.67° C | 46% | 1021.1 hPa | 0 mm | - | 423 W/m² | - |
| 1787940605 | 27.22° C | 44% | 1021.1 hPa | 0 mm | - | 831 W/m² | - |
| 1787940005 | 26.11° C | - | - | 0 mm | - | 103 W/m² | - |
| 1787939405 | 25° C | 52% | 1021.3 hPa | 0 mm | - | 440 W/m² | - |
| 1787938805 | 23.33° C | 53% | 1021.3 hPa | 0 mm | - | 291 W/m² | - |
| 1787938205 | 23.89° C | 52% | 1021.3 hPa | 0 mm | - | 230 W/m² | - |
| 1787937605 | 23.89° C | 51% | 1021.3 hPa | 0 mm | - | 279 W/m² | - |
| 1787937005 | 23.33° C | 51% | 1021.3 hPa | 0 mm | - | 604 W/m² | - |
| 1787936405 | 23.89° C | 49% | 1021.3 hPa | 0 mm | - | 539 W/m² | - |
| 1787935805 | 24.44° C | 48% | 1021.2 hPa | 0 mm | - | 635 W/m² | - |
| 1787935205 | 24.44° C | 50% | 1021.2 hPa | 0 mm | - | 886 W/m² | - |
| 1787934604 | 22.78° C | 54% | 1021.2 hPa | 0 mm | - | 615 W/m² | - |
| 1787934005 | 22.78° C | 53% | 1021.2 hPa | 0 mm | - | 410 W/m² | - |
| 1787933405 | 22.78° C | 59% | 1021.2 hPa | 0 mm | - | 248 W/m² | - |
* Rain latest hour (hover to see other rain measurements)
** Current wind speed in m/s (hover to see current wind gust speed)